CFG7TW EDHL-EDXW
Flight info
| Callsign | CFG7TW |
|---|---|
| Flight time | 0h 25m |
| Altitude | 18000 |
| Route | HAM2K HAM M852 SOKWO T814 EXNEL DCT OLDIP |
| Aircraft | A20N/M-SDE2E3FGHIRWXY/LB1 |
Departure
| Time | 2026-05-04 23:33 |
|---|---|
| Airport | Lübeck Blankensee Airport (EDHL) |
Arrival
| Time | 2026-05-04 23:58 |
|---|---|
| Airport | Westerland Sylt Airport (EDXW) |
| Time | Latitude | Longitude | Altitude | Speed | Heading |
|---|---|---|---|---|---|
| 2026-05-04 23:21 | 53.79980 | 10.70288 | 61 ft | 0 kts | 312° |
| 2026-05-04 23:29 | 53.79985 | 10.70273 | 79 ft | 2 kts | 295° |
| 2026-05-04 23:30 | 53.79990 | 10.70254 | 51 ft | 3 kts | 296° |
| 2026-05-04 23:30 | 53.80021 | 10.70226 | 55 ft | 6 kts | 352° |
| 2026-05-04 23:30 | 53.80022 | 10.70226 | 55 ft | 0 kts | 351° |
| 2026-05-04 23:31 | 53.80042 | 10.70220 | 55 ft | 5 kts | 351° |
| 2026-05-04 23:31 | 53.80090 | 10.70204 | 58 ft | 9 kts | 348° |
| 2026-05-04 23:32 | 53.80197 | 10.70194 | 61 ft | 12 kts | 50° |
| 2026-05-04 23:32 | 53.80231 | 10.70342 | 53 ft | 40 kts | 71° |
| 2026-05-04 23:32 | 53.80400 | 10.71196 | 58 ft | 110 kts | 71° |
| 2026-05-04 23:32 | 53.80707 | 10.72703 | 212 ft | 144 kts | 69° |
| 2026-05-04 23:33 | 53.81016 | 10.74184 | 1012 ft | 131 kts | 69° |
| 2026-05-04 23:33 | 53.81346 | 10.75813 | 1342 ft | 156 kts | 71° |
| 2026-05-04 23:33 | 53.81697 | 10.77585 | 1807 ft | 168 kts | 71° |
| 2026-05-04 23:33 | 53.82074 | 10.79552 | 2372 ft | 177 kts | 71° |
| 2026-05-04 23:34 | 53.82535 | 10.81541 | 2893 ft | 191 kts | 52° |
| 2026-05-04 23:34 | 53.83608 | 10.82915 | 3373 ft | 204 kts | 12° |
| 2026-05-04 23:34 | 53.85031 | 10.82942 | 3902 ft | 213 kts | 337° |
| 2026-05-04 23:34 | 53.86272 | 10.81502 | 4415 ft | 224 kts | 302° |
| 2026-05-04 23:35 | 53.86831 | 10.79076 | 5074 ft | 226 kts | 271° |
| 2026-05-04 23:35 | 53.86726 | 10.76389 | 5953 ft | 229 kts | 262° |
| 2026-05-04 23:35 | 53.86681 | 10.73699 | 6867 ft | 232 kts | 272° |
| 2026-05-04 23:35 | 53.86994 | 10.70976 | 7639 ft | 245 kts | 284° |
| 2026-05-04 23:36 | 53.87681 | 10.68147 | 8289 ft | 264 kts | 293° |
| 2026-05-04 23:36 | 53.88581 | 10.65433 | 9279 ft | 269 kts | 297° |
| 2026-05-04 23:36 | 53.89572 | 10.62734 | 10247 ft | 274 kts | 298° |
| 2026-05-04 23:36 | 53.90609 | 10.59976 | 11132 ft | 279 kts | 298° |
| 2026-05-04 23:37 | 53.91671 | 10.57126 | 11676 ft | 298 kts | 298° |
| 2026-05-04 23:37 | 53.92793 | 10.54083 | 12340 ft | 309 kts | 298° |
| 2026-05-04 23:37 | 53.93939 | 10.50957 | 13229 ft | 313 kts | 298° |
| 2026-05-04 23:37 | 53.95090 | 10.47806 | 14077 ft | 317 kts | 298° |
| 2026-05-04 23:38 | 53.96266 | 10.44578 | 14904 ft | 321 kts | 298° |
| 2026-05-04 23:38 | 53.97439 | 10.41350 | 15713 ft | 324 kts | 297° |
| 2026-05-04 23:38 | 53.98560 | 10.38260 | 16467 ft | 328 kts | 297° |
| 2026-05-04 23:38 | 53.99770 | 10.34918 | 17279 ft | 332 kts | 297° |
| 2026-05-04 23:39 | 54.00978 | 10.31577 | 18064 ft | 336 kts | 297° |
| 2026-05-04 23:39 | 54.02222 | 10.28122 | 18370 ft | 354 kts | 297° |
| 2026-05-04 23:39 | 54.03535 | 10.24473 | 18714 ft | 364 kts | 297° |
| 2026-05-04 23:39 | 54.04868 | 10.20772 | 19075 ft | 366 kts | 297° |
| 2026-05-04 23:40 | 54.06188 | 10.17110 | 19428 ft | 368 kts | 297° |
| 2026-05-04 23:40 | 54.07539 | 10.13353 | 19684 ft | 369 kts | 297° |
| 2026-05-04 23:40 | 54.08873 | 10.09633 | 19914 ft | 371 kts | 297° |
| 2026-05-04 23:40 | 54.10209 | 10.05898 | 19986 ft | 371 kts | 297° |
| 2026-05-04 23:41 | 54.11557 | 10.02129 | 19988 ft | 370 kts | 297° |
| 2026-05-04 23:41 | 54.12944 | 9.98446 | 19993 ft | 371 kts | 299° |
| 2026-05-04 23:41 | 54.14398 | 9.94758 | 19990 ft | 371 kts | 300° |
| 2026-05-04 23:41 | 54.15839 | 9.91129 | 19993 ft | 371 kts | 300° |
| 2026-05-04 23:42 | 54.17274 | 9.87493 | 19997 ft | 371 kts | 300° |
| 2026-05-04 23:42 | 54.18703 | 9.83843 | 19996 ft | 370 kts | 299° |
| 2026-05-04 23:42 | 54.20142 | 9.80141 | 19993 ft | 370 kts | 299° |
| 2026-05-04 23:42 | 54.21547 | 9.76519 | 19814 ft | 367 kts | 299° |
| 2026-05-04 23:43 | 54.22961 | 9.72862 | 19386 ft | 365 kts | 299° |
| 2026-05-04 23:43 | 54.24352 | 9.69259 | 18852 ft | 363 kts | 300° |
| 2026-05-04 23:43 | 54.25803 | 9.65766 | 18303 ft | 362 kts | 303° |
| 2026-05-04 23:43 | 54.27386 | 9.62397 | 17681 ft | 361 kts | 305° |
| 2026-05-04 23:44 | 54.28925 | 9.59089 | 17113 ft | 356 kts | 304° |
| 2026-05-04 23:44 | 54.30425 | 9.55752 | 16571 ft | 352 kts | 303° |
| 2026-05-04 23:44 | 54.31894 | 9.52397 | 16036 ft | 347 kts | 302° |
| 2026-05-04 23:44 | 54.33306 | 9.49087 | 15511 ft | 344 kts | 302° |
| 2026-05-04 23:45 | 54.34681 | 9.45773 | 14959 ft | 342 kts | 301° |
| 2026-05-04 23:45 | 54.36038 | 9.42408 | 14401 ft | 339 kts | 301° |
| 2026-05-04 23:45 | 54.37360 | 9.39092 | 13884 ft | 337 kts | 302° |
| 2026-05-04 23:45 | 54.38738 | 9.35855 | 13297 ft | 336 kts | 304° |
| 2026-05-04 23:46 | 54.40157 | 9.32686 | 12731 ft | 334 kts | 304° |
| 2026-05-04 23:46 | 54.41583 | 9.29538 | 12172 ft | 331 kts | 304° |
| 2026-05-04 23:46 | 54.42929 | 9.26379 | 11631 ft | 327 kts | 298° |
| 2026-05-04 23:46 | 54.43908 | 9.22880 | 11084 ft | 321 kts | 287° |
| 2026-05-04 23:47 | 54.44538 | 9.19249 | 10570 ft | 317 kts | 282° |
| 2026-05-04 23:47 | 54.45058 | 9.15614 | 10074 ft | 314 kts | 280° |
| 2026-05-04 23:47 | 54.45522 | 9.11953 | 9705 ft | 307 kts | 279° |
| 2026-05-04 23:47 | 54.45938 | 9.08453 | 9536 ft | 293 kts | 281° |
| 2026-05-04 23:48 | 54.46606 | 9.05203 | 9418 ft | 282 kts | 293° |
| 2026-05-04 23:48 | 54.47649 | 9.02447 | 9310 ft | 273 kts | 306° |
| 2026-05-04 23:48 | 54.48959 | 9.00166 | 9036 ft | 268 kts | 312° |
| 2026-05-04 23:48 | 54.50344 | 8.97992 | 8699 ft | 266 kts | 314° |
| 2026-05-04 23:49 | 54.51714 | 8.95903 | 8294 ft | 264 kts | 311° |
| 2026-05-04 23:49 | 54.52965 | 8.93598 | 7789 ft | 266 kts | 306° |
| 2026-05-04 23:49 | 54.54140 | 8.91091 | 7286 ft | 269 kts | 305° |
| 2026-05-04 23:49 | 54.55312 | 8.88625 | 6991 ft | 264 kts | 307° |
| 2026-05-04 23:50 | 54.56516 | 8.86318 | 6812 ft | 256 kts | 310° |
| 2026-05-04 23:50 | 54.57761 | 8.84164 | 6615 ft | 249 kts | 313° |
| 2026-05-04 23:50 | 54.58997 | 8.82154 | 6418 ft | 242 kts | 313° |
| 2026-05-04 23:50 | 54.60214 | 8.80177 | 6205 ft | 236 kts | 313° |
| 2026-05-04 23:51 | 54.61392 | 8.78262 | 5930 ft | 233 kts | 313° |
| 2026-05-04 23:51 | 54.62569 | 8.76320 | 5572 ft | 233 kts | 311° |
| 2026-05-04 23:51 | 54.63620 | 8.74218 | 5228 ft | 233 kts | 306° |
| 2026-05-04 23:51 | 54.64611 | 8.72035 | 4923 ft | 231 kts | 305° |
| 2026-05-04 23:52 | 54.65552 | 8.69834 | 4829 ft | 223 kts | 303° |
| 2026-05-04 23:52 | 54.66456 | 8.67692 | 4851 ft | 221 kts | 307° |
| 2026-05-04 23:52 | 54.67505 | 8.65697 | 4888 ft | 225 kts | 314° |
| 2026-05-04 23:52 | 54.68651 | 8.63824 | 4914 ft | 230 kts | 314° |
| 2026-05-04 23:53 | 54.69812 | 8.61926 | 4902 ft | 231 kts | 314° |
| 2026-05-04 23:53 | 54.71026 | 8.60066 | 4884 ft | 231 kts | 318° |
| 2026-05-04 23:53 | 54.72293 | 8.58377 | 4876 ft | 231 kts | 322° |
| 2026-05-04 23:53 | 54.73601 | 8.56771 | 4863 ft | 230 kts | 321° |
| 2026-05-04 23:54 | 54.74857 | 8.55103 | 4767 ft | 226 kts | 318° |
| 2026-05-04 23:54 | 54.76038 | 8.53320 | 4524 ft | 222 kts | 314° |
| 2026-05-04 23:54 | 54.77152 | 8.51466 | 4072 ft | 226 kts | 315° |
| 2026-05-04 23:54 | 54.78384 | 8.49690 | 3608 ft | 230 kts | 321° |
| 2026-05-04 23:55 | 54.79675 | 8.48099 | 3230 ft | 229 kts | 325° |
| 2026-05-04 23:55 | 54.81003 | 8.46572 | 2843 ft | 224 kts | 325° |
| 2026-05-04 23:55 | 54.83365 | 8.43613 | 2022 ft | 197 kts | 324° |
| 2026-05-04 23:56 | 54.84433 | 8.42225 | 1641 ft | 189 kts | 324° |
| 2026-05-04 23:56 | 54.85446 | 8.40953 | 1458 ft | 168 kts | 327° |
| 2026-05-04 23:56 | 54.86352 | 8.39922 | 1342 ft | 143 kts | 328° |
| 2026-05-04 23:56 | 54.87133 | 8.39027 | 1062 ft | 132 kts | 328° |
| 2026-05-04 23:57 | 54.87891 | 8.38171 | 746 ft | 126 kts | 328° |
| 2026-05-04 23:57 | 54.88603 | 8.37352 | 475 ft | 122 kts | 326° |
| 2026-05-04 23:57 | 54.89302 | 8.36516 | 323 ft | 119 kts | 326° |
| 2026-05-04 23:57 | 54.89990 | 8.35688 | 186 ft | 124 kts | 324° |
| 2026-05-04 23:58 | 54.90706 | 8.34803 | 43 ft | 122 kts | 324° |
| 2026-05-04 23:58 | 54.91271 | 8.34113 | 42 ft | 69 kts | 323° |
| 2026-05-04 23:58 | 54.91486 | 8.33837 | 41 ft | 40 kts | 324° |
| 2026-05-04 23:58 | 54.91674 | 8.33563 | 42 ft | 16 kts | 281° |
| 2026-05-04 23:59 | 54.91724 | 8.33382 | 41 ft | 18 kts | 292° |
| 2026-05-04 23:59 | 54.91761 | 8.33207 | 41 ft | 0 kts | 255° |
| 2026-05-04 23:59 | 54.91741 | 8.33185 | 41 ft | 9 kts | 193° |
| 2026-05-04 23:59 | 54.91639 | 8.33178 | 40 ft | 18 kts | 181° |
| 2026-05-05 00:00 | 54.91500 | 8.33178 | 40 ft | 22 kts | 179° |
| 2026-05-05 00:00 | 54.91456 | 8.33209 | 40 ft | 21 kts | 148° |
| 2026-05-05 00:00 | 54.91386 | 8.33125 | 40 ft | 12 kts | 267° |